Huvudsida
METAR-TAF:

METAR-TAF

Flygplatser :

Cagliari, Italien

latitud: 39-15N, longitud: 009-04E, höjd: 4 m

Aktuellt väderrapport

Denna rapport gjordes för 37 minuter sedan, klockan 15:20 UTC
Vind 4 kt från nord/nordost, varierande mellan nord och nordost
Temperatur 16°C
Fuktighet 72%
Tryck 1012 hPa
Sikt 10 km eller mer
Få moln på en höjd av 2500 ft, Cumulonimbus.
Spridda moln på en höjd av 3500 ft
skurar i närheten

METAR: LIEE 291520Z 03004KT 350V050 9999 VCSH FEW025CB SCT035 16/11 Q1012

Tid: 17:57 (15:57 UTC)

Väderprognos

Denna rapport gjordes för 4 timmar och 57 minuter sedan, klockan 11:00 UTC
Prognos gäller från 29 kl. 12 UTC till 30 kl. 12 UTC
Vind 10 kt från sydost
Sikt 10 km eller mer
Spridda moln på en höjd av 2000 ft
Temporärt
från 29 kl. 12 UTC till 29 kl. 16 UTC
Sikt: 4000 m
regnskurar
Blir
från 29 kl. 17 UTC till 29 kl. 19 UTC
Vind 5 kt varierande vindriktning

TAF: LIEE 291100Z 2912/3012 14010KT 9999 SCT020 TEMPO 2912/2916 4000 SHRA BECMG 2917/2919 VRB05KT

Aktuella väderrapporter och prognoser från 4000 flygplatser (METAR- och TAF-rapporter).

De tillgängliga stationerna syns som gula och röda prickar på kartan.

För musen över prickarna för att se namnen på stationerna.

Klicka sedan för att få väderrapporter och prognoser.

För att ändra kartan: Klicka på de gröna knapparna med ett svart kors på för att zooma in; den gröna knappen med ett streck på för att zooma ut; eller på de gröna pilarna för angränsande kartor.


METAR-TAF: